Time;durP1;ratioP1;P1;durP2;ratioP2;P2;SDS_P1;SDS_P2;PMS_P1;PMS_P2;Temp;Humidity;BMP_temperature;BMP_pressure;BME280_temperature;BME280_humidity;BME280_pressure;Samples;Min_cycle;Max_cycle;Signal;HPM_P1;HPM_P2
2021/11/17 02:26:12;;;;;;;;;;;;;;;4.08;87.54;97266.00;30001;960;1793;-59
2021/11/17 02:27:08;;;;;;;;;;;;;;;4.10;87.82;97266.56;30001;983;1867;-59
2021/11/17 02:27:49;;;;;;;;;;;;;;;4.09;87.68;97265.75;30001;983;1868;-57
2021/11/17 02:28:29;;;;;;;;;;;;;;;4.07;87.19;97257.13;30001;983;1868;-59
2021/11/17 02:29:38;;;;;;;;;;;;;;;4.07;87.58;97272.44;30001;983;1855;-58
2021/11/17 02:30:28;;;;;;;;;;;;;;;4.04;87.73;97263.81;30001;983;1872;-58
2021/11/17 02:31:17;;;;;;;;;;;;;;;4.03;87.58;97266.72;30001;982;1872;-59
2021/11/17 02:32:20;;;;;;;;;;;;;;;4.01;87.76;97264.28;30001;982;1873;-59
2021/11/17 02:33:23;;;;;;;;;;;;;;;4.02;88.11;97265.09;30001;982;1873;-58
2021/11/17 02:34:16;;;;;;;;;;;;;;;4.01;87.96;97264.28;30001;983;1876;-59
2021/11/17 02:35:12;;;;;;;;;;;;;;;4.00;88.26;97268.03;30001;983;1850;-59
2021/11/17 02:36:06;;;;;;;;;;;;;;;4.00;88.09;97259.16;30001;983;1854;-59
2021/11/17 02:36:46;;;;;;;;;;;;;;;3.99;88.45;97258.34;30001;965;1792;-58
2021/11/17 02:37:44;;;;;;;;;;;;;;;3.99;88.38;97266.38;30001;983;1863;-59
2021/11/17 02:38:35;;;;;;;;;;;;;;;3.99;88.27;97263.72;30001;982;1868;-58
2021/11/17 02:39:17;;;;;;;;;;;;;;;3.99;88.58;97263.72;30001;982;1877;-58
2021/11/17 02:39:55;;;;;;;;;;;;;;;4.00;88.71;97262.66;30001;982;1855;-59
2021/11/17 02:40:39;;;;;;;;;;;;;;;4.01;88.26;97258.09;30001;982;1859;-59
2021/11/17 02:41:48;;;;;;;;;;;;;;;4.02;88.66;97255.16;30001;983;1854;-59
2021/11/17 02:42:44;;;;;;;;;;;;;;;4.04;88.50;97260.31;30001;983;1872;-58
2021/11/17 02:43:31;;;;;;;;;;;;;;;4.01;87.91;97255.41;30001;983;1872;-59
2021/11/17 02:44:25;;;;;;;;;;;;;;;3.97;88.28;97260.44;30001;983;1863;-59
2021/11/17 02:45:19;;;;;;;;;;;;;;;3.98;88.11;97259.41;30001;983;1859;-59
2021/11/17 02:46:12;;;;;;;;;;;;;;;3.98;88.22;97264.75;30001;982;1868;-59
2021/11/17 02:47:15;;;;;;;;;;;;;;;3.98;88.51;97270.13;30001;982;1859;-58
2021/11/17 02:47:55;;;;;;;;;;;;;;;3.96;88.95;97261.50;30001;982;1868;-57
2021/11/17 02:48:39;;;;;;;;;;;;;;;3.96;88.94;97266.88;30001;983;1863;-58
2021/11/17 02:49:35;;;;;;;;;;;;;;;3.96;89.01;97260.69;30001;983;1868;-59
2021/11/17 02:50:24;;;;;;;;;;;;;;;3.96;89.22;97266.88;30001;983;1859;-59
2021/11/17 02:51:23;;;;;;;;;;;;;;;3.93;89.43;97267.34;30001;983;1863;-58
2021/11/17 02:52:04;;;;;;;;;;;;;;;3.92;89.41;97267.59;30001;983;1863;-58
2021/11/17 02:52:53;;;;;;;;;;;;;;;3.93;89.69;97266.53;30001;982;1868;-58
2021/11/17 02:53:50;;;;;;;;;;;;;;;3.93;89.48;97270.03;30001;982;1872;-59
2021/11/17 02:54:32;;;;;;;;;;;;;;;3.93;89.65;97270.03;30001;982;1873;-59
2021/11/17 02:55:16;;;;;;;;;;;;;;;3.94;89.76;97268.97;30001;982;1868;-58
2021/11/17 02:56:24;;;;;;;;;;;;;;;3.93;89.67;97275.41;30001;982;1855;-59
2021/11/17 02:57:06;;;;;;;;;;;;;;;3.91;89.82;97268.66;30001;983;1854;-59
2021/11/17 02:58:02;;;;;;;;;;;;;;;3.90;89.97;97267.00;30001;983;1863;-59
2021/11/17 02:58:59;;;;;;;;;;;;;;;3.89;89.94;97260.84;30001;983;1877;-58
2021/11/17 02:59:59;;;;;;;;;;;;;;;3.88;90.02;97269.94;30001;983;1859;-59
2021/11/17 03:01:01;;;;;;;;;;;;;;;3.87;90.00;97268.31;30001;982;1877;-58
2021/11/17 03:02:10;;;;;;;;;;;;;;;3.87;90.27;97267.50;30001;982;1877;-58
2021/11/17 03:03:00;;;;;;;;;;;;;;;3.88;90.38;97267.25;30001;982;1881;-58
2021/11/17 03:03:57;;;;;;;;;;;;;;;3.87;90.39;97268.31;30001;983;1876;-56
2021/11/17 03:04:43;;;;;;;;;;;;;;;3.86;90.43;97260.50;30001;983;1863;-57
2021/11/17 03:05:37;;;;;;;;;;;;;;;3.85;90.05;97267.72;30001;983;1863;-59
2021/11/17 03:06:26;;;;;;;;;;;;;;;3.88;90.08;97258.38;30001;983;1881;-58
2021/11/17 03:07:13;;;;;;;;;;;;;;;3.85;90.16;97265.06;30001;983;1872;-58
2021/11/17 03:08:13;;;;;;;;;;;;;;;3.84;89.96;97263.41;30001;982;1873;-59
2021/11/17 03:09:07;;;;;;;;;;;;;;;3.82;90.32;97262.84;30001;982;1881;-57
2021/11/17 03:09:54;;;;;;;;;;;;;;;3.82;90.22;97265.53;30001;982;1859;-58
2021/11/17 03:10:38;;;;;;;;;;;;;;;3.83;90.28;97261.78;30001;982;1851;-58
2021/11/17 03:11:27;;;;;;;;;;;;;;;3.82;90.09;97265.53;30001;983;1872;-58
2021/11/17 03:12:23;;;;;;;;;;;;;;;3.83;90.17;97264.47;30001;983;1876;-58
2021/11/17 03:13:17;;;;;;;;;;;;;;;3.83;90.53;97266.34;30001;983;1876;-58
2021/11/17 03:13:54;;;;;;;;;;;;;;;3.82;90.63;97265.53;30001;983;1881;-58
2021/11/17 03:14:51;;;;;;;;;;;;;;;3.82;90.66;97265.53;30001;983;1872;-59
2021/11/17 03:15:44;;;;;;;;;;;;;;;3.82;90.51;97265.53;30001;982;1864;-58
2021/11/17 03:16:38;;;;;;;;;;;;;;;3.82;90.47;97265.53;30001;982;1873;-59
2021/11/17 03:17:15;;;;;;;;;;;;;;;3.82;90.88;97264.72;30001;982;1798;-58
2021/11/17 03:18:08;;;;;;;;;;;;;;;3.83;90.81;97266.34;30001;982;1868;-58
2021/11/17 03:18:52;;;;;;;;;;;;;;;3.81;90.59;97263.91;30001;983;1880;-59
2021/11/17 03:19:35;;;;;;;;;;;;;;;3.82;91.08;97264.72;30001;983;1872;-57
2021/11/17 03:20:17;;;;;;;;;;;;;;;3.81;90.85;97263.91;30001;983;1859;-58
2021/11/17 03:20:58;;;;;;;;;;;;;;;3.80;91.01;97262.31;30001;983;1863;-58
2021/11/17 03:21:57;;;;;;;;;;;;;;;3.81;91.00;97274.63;30001;983;1872;-56
2021/11/17 03:22:51;;;;;;;;;;;;;;;3.81;91.16;97269.25;30001;983;1863;-58
2021/11/17 03:23:31;;;;;;;;;;;;;;;3.82;91.20;97276.25;30001;982;1855;-58
2021/11/17 03:24:24;;;;;;;;;;;;;;;3.79;91.47;97271.41;30001;982;1868;-59
2021/11/17 03:25:08;;;;;;;;;;;;;;;3.76;92.12;97266.50;30001;982;1881;-57
2021/11/17 03:26:02;;;;;;;;;;;;;;;3.75;91.93;97274.81;30001;983;1872;-58
2021/11/17 03:26:45;;;;;;;;;;;;;;;3.74;91.94;97274.00;30001;983;1863;-58
2021/11/17 03:27:42;;;;;;;;;;;;;;;3.74;92.08;97268.62;30001;983;1863;-58
2021/11/17 03:28:20;;;;;;;;;;;;;;;3.76;91.74;97271.06;30001;983;1881;-58
2021/11/17 03:29:09;;;;;;;;;;;;;;;3.75;92.00;97281.00;30001;983;1872;-59
2021/11/17 03:29:56;;;;;;;;;;;;;;;3.75;91.95;97270.25;30001;983;1877;-59
2021/11/17 03:31:05;;;;;;;;;;;;;;;3.76;91.96;97271.06;30001;982;1872;-58
2021/11/17 03:31:54;;;;;;;;;;;;;;;3.76;91.93;97277.25;30001;985;1850;-58
2021/11/17 03:32:48;;;;;;;;;;;;;;;3.75;91.69;97275.62;30001;982;1851;-58
2021/11/17 03:33:43;;;;;;;;;;;;;;;3.76;91.91;97273.75;30001;983;1872;-59
2021/11/17 03:34:36;;;;;;;;;;;;;;;3.74;92.17;97273.19;30001;985;1855;-60
2021/11/17 03:35:29;;;;;;;;;;;;;;;3.73;91.97;97275.03;30001;983;1876;-58
2021/11/17 03:36:20;;;;;;;;;;;;;;;3.73;92.22;97269.69;30001;983;1868;-59
2021/11/17 03:37:09;;;;;;;;;;;;;;;3.72;92.32;97265.37;30001;983;1877;-58
2021/11/17 03:37:52;;;;;;;;;;;;;;;3.72;92.01;97270.72;30001;983;1855;-58
2021/11/17 03:38:34;;;;;;;;;;;;;;;3.70;92.22;97265.59;30001;982;1859;-58
2021/11/17 03:39:24;;;;;;;;;;;;;;;3.70;92.32;97262.09;30001;982;1868;-59
2021/11/17 03:40:07;;;;;;;;;;;;;;;3.69;92.36;97268.53;30001;982;1868;-58
2021/11/17 03:41:13;;;;;;;;;;;;;;;3.70;92.22;97267.47;30001;983;1867;-60
2021/11/17 03:42:02;;;;;;;;;;;;;;;3.71;92.30;97269.09;30001;983;1876;-59
2021/11/17 03:42:52;;;;;;;;;;;;;;;3.72;92.04;97268.03;30001;983;1850;-59
2021/11/17 03:43:43;;;;;;;;;;;;;;;3.70;92.32;97273.66;30001;983;1872;-59
2021/11/17 03:44:32;;;;;;;;;;;;;;;3.72;91.99;97267.22;30001;983;1864;-59
2021/11/17 03:45:12;;;;;;;;;;;;;;;3.72;91.97;97276.09;30001;983;1872;-59
2021/11/17 03:45:55;;;;;;;;;;;;;;;3.72;92.37;97270.72;30001;982;1868;-59
2021/11/17 03:46:36;;;;;;;;;;;;;;;3.72;92.17;97270.72;30001;982;1855;-59
2021/11/17 03:47:24;;;;;;;;;;;;;;;3.74;92.30;97270.50;30001;982;1847;-59
2021/11/17 03:48:10;;;;;;;;;;;;;;;3.73;92.45;97272.37;30001;983;1872;-59
2021/11/17 03:48:50;;;;;;;;;;;;;;;3.74;92.37;97278.53;30001;983;1868;-59
2021/11/17 03:49:50;;;;;;;;;;;;;;;3.73;92.12;97272.37;30001;983;1868;-60
2021/11/17 03:50:33;;;;;;;;;;;;;;;3.73;92.35;97271.53;30001;983;1859;-60
2021/11/17 03:51:17;;;;;;;;;;;;;;;3.72;92.43;97270.72;30001;983;1859;-59
2021/11/17 03:52:10;;;;;;;;;;;;;;;3.71;92.45;97269.09;30001;983;1855;-58
2021/11/17 03:53:03;;;;;;;;;;;;;;;3.70;92.64;97270.97;30001;982;1859;-59
2021/11/17 03:53:53;;;;;;;;;;;;;;;3.70;92.65;97272.84;30002;982;1877;-59
2021/11/17 03:54:33;;;;;;;;;;;;;;;3.69;92.79;97276.56;30002;982;1868;-60
2021/11/17 03:55:15;;;;;;;;;;;;;;;3.69;92.57;97271.22;30002;982;1869;-59
2021/11/17 03:56:17;;;;;;;;;;;;;;;3.68;92.51;97277.63;30002;983;1868;-60
2021/11/17 03:56:58;;;;;;;;;;;;;;;3.69;92.75;97276.56;30002;983;1859;-59
2021/11/17 03:57:38;;;;;;;;;;;;;;;3.69;92.52;97276.56;30002;982;1846;-60
2021/11/17 03:58:24;;;;;;;;;;;;;;;3.68;92.78;97275.75;30001;983;1868;-58
2021/11/17 03:59:02;;;;;;;;;;;;;;;3.68;92.80;97274.94;30002;983;1868;-60
2021/11/17 04:00:00;;;;;;;;;;;;;;;3.67;93.17;97278.69;30002;983;1868;-59
2021/11/17 04:00:47;;;;;;;;;;;;;;;3.67;92.81;97281.38;30002;982;1868;-59
2021/11/17 04:01:30;;;;;;;;;;;;;;;3.68;92.96;97278.44;30002;982;1868;-60
2021/11/17 04:02:38;;;;;;;;;;;;;;;3.67;92.74;97274.13;30002;982;1868;-60
2021/11/17 04:03:16;;;;;;;;;;;;;;;3.67;93.12;97279.50;30002;983;1859;-60
2021/11/17 04:04:03;;;;;;;;;;;;;;;3.68;93.10;97280.31;30002;983;1859;-59
2021/11/17 04:04:52;;;;;;;;;;;;;;;3.69;93.21;97279.25;30002;983;1868;-59
2021/11/17 04:05:35;;;;;;;;;;;;;;;3.69;93.04;97276.56;30002;983;1872;-59
2021/11/17 04:06:25;;;;;;;;;;;;;;;3.67;93.01;97279.50;30002;983;1868;-59
2021/11/17 04:07:03;;;;;;;;;;;;;;;3.69;92.78;97276.56;30002;983;1859;-59
2021/11/17 04:07:43;;;;;;;;;;;;;;;3.69;93.24;97276.56;30002;982;1846;-60
2021/11/17 04:08:20;;;;;;;;;;;;;;;3.70;93.08;97275.53;30002;982;1868;-59
2021/11/17 04:09:17;;;;;;;;;;;;;;;3.71;92.83;97282.53;30002;982;1868;-59
2021/11/17 04:10:17;;;;;;;;;;;;;;;3.72;93.01;97276.09;30002;982;1877;-59
2021/11/17 04:11:03;;;;;;;;;;;;;;;3.74;92.64;97276.69;30002;983;1872;-59
2021/11/17 04:11:48;;;;;;;;;;;;;;;3.76;92.63;97285.31;30002;983;1855;-59
2021/11/17 04:12:28;;;;;;;;;;;;;;;3.80;92.85;97274.91;30002;983;1859;-59
2021/11/17 04:13:15;;;;;;;;;;;;;;;3.78;92.60;97279.69;30002;983;1855;-59
2021/11/17 04:14:06;;;;;;;;;;;;;;;3.78;92.69;97285.88;30002;983;1859;-59
2021/11/17 04:14:44;;;;;;;;;;;;;;;3.76;92.30;97274.56;30002;983;1860;-59
2021/11/17 04:15:27;;;;;;;;;;;;;;;3.76;92.29;97277.25;30002;982;1859;-59
2021/11/17 04:16:13;;;;;;;;;;;;;;;3.73;92.45;97272.37;30002;982;1868;-56
2021/11/17 04:17:02;;;;;;;;;;;;;;;3.75;92.57;97280.19;30002;982;1855;-58
2021/11/17 04:17:39;;;;;;;;;;;;;;;3.78;92.53;97277.81;30002;982;1860;-59
2021/11/17 04:18:16;;;;;;;;;;;;;;;3.78;92.01;97274.31;30002;983;1868;-59
2021/11/17 04:18:56;;;;;;;;;;;;;;;3.79;92.16;97281.31;30002;983;1868;-59
2021/11/17 04:19:36;;;;;;;;;;;;;;;3.79;92.21;97276.78;30002;983;1868;-59
2021/11/17 04:20:33;;;;;;;;;;;;;;;3.82;92.10;97281.63;30002;983;1868;-60
2021/11/17 04:21:41;;;;;;;;;;;;;;;3.85;92.07;97277.66;30002;983;1877;-57
2021/11/17 04:22:31;;;;;;;;;;;;;;;3.92;91.56;97279.16;30002;983;1855;-56
2021/11/17 04:23:20;;;;;;;;;;;;;;;3.95;91.24;97277.84;30002;982;1851;-60
2021/11/17 04:24:11;;;;;;;;;;;;;;;3.92;90.81;97281.84;30002;982;1864;-59
2021/11/17 04:24:58;;;;;;;;;;;;;;;3.89;91.01;97276.94;30002;982;1877;-59
2021/11/17 04:25:51;;;;;;;;;;;;;;;3.88;91.07;97275.31;30002;983;1854;-59
2021/11/17 04:26:48;;;;;;;;;;;;;;;3.89;91.18;97273.44;30002;983;1872;-59
2021/11/17 04:27:29;;;;;;;;;;;;;;;3.89;90.93;97276.12;30002;983;1872;-60
2021/11/17 04:28:24;;;;;;;;;;;;;;;3.88;90.98;97275.31;30002;983;1863;-59
2021/11/17 04:29:15;;;;;;;;;;;;;;;3.88;91.22;97275.31;30002;983;1868;-60
2021/11/17 04:29:56;;;;;;;;;;;;;;;3.86;91.37;97272.03;30002;983;1877;-59
2021/11/17 04:30:53;;;;;;;;;;;;;;;3.86;91.44;97277.41;30002;982;1855;-59
2021/11/17 04:31:46;;;;;;;;;;;;;;;3.90;91.35;97269.69;30002;982;1873;-60
2021/11/17 04:32:35;;;;;;;;;;;;;;;3.91;91.50;97277.50;30002;982;1864;-59
2021/11/17 04:33:32;;;;;;;;;;;;;;;3.89;91.31;97271.56;30002;983;1872;-59
2021/11/17 04:34:18;;;;;;;;;;;;;;;3.87;91.46;97273.69;30002;983;1872;-60
2021/11/17 04:35:22;;;;;;;;;;;;;;;3.88;91.50;97269.94;30002;983;1855;-58
2021/11/17 04:36:24;;;;;;;;;;;;;;;3.93;91.52;97271.91;30002;983;1872;-59
2021/11/17 04:37:01;;;;;;;;;;;;;;;3.92;91.12;97267.59;30002;983;1873;-59
2021/11/17 04:37:48;;;;;;;;;;;;;;;3.93;91.11;97271.91;30002;982;1864;-59
2021/11/17 04:38:37;;;;;;;;;;;;;;;3.93;91.39;97269.22;30002;982;1855;-59
2021/11/17 04:39:34;;;;;;;;;;;;;;;3.92;90.93;97264.91;30002;982;1860;-59
2021/11/17 04:40:34;;;;;;;;;;;;;;;3.91;91.04;97274.81;30002;983;1876;-60
2021/11/17 04:41:22;;;;;;;;;;;;;;;3.90;91.35;97273.19;30002;983;1868;-59
2021/11/17 04:42:12;;;;;;;;;;;;;;;3.90;90.95;97272.37;30002;983;1868;-58
2021/11/17 04:42:59;;;;;;;;;;;;;;;3.90;91.13;97267.84;30002;983;1877;-58
2021/11/17 04:43:39;;;;;;;;;;;;;;;3.91;91.27;97264.09;30002;983;1855;-59
2021/11/17 04:44:35;;;;;;;;;;;;;;;3.91;91.08;97266.78;30002;983;1859;-59
2021/11/17 04:45:21;;;;;;;;;;;;;;;3.93;91.00;97269.22;30002;982;1859;-59
2021/11/17 04:46:12;;;;;;;;;;;;;;;3.91;90.99;97274.81;30002;982;1860;-58
2021/11/17 04:47:05;;;;;;;;;;;;;;;3.90;90.75;97267.84;30002;982;1877;-59
2021/11/17 04:48:02;;;;;;;;;;;;;;;3.89;90.79;97268.06;30002;983;1867;-59
2021/11/17 04:49:01;;;;;;;;;;;;;;;3.85;90.96;97274.97;30001;983;1876;-59
2021/11/17 04:50:07;;;;;;;;;;;;;;;3.83;90.89;97277.91;30001;983;1872;-60
2021/11/17 04:51:16;;;;;;;;;;;;;;;3.91;91.12;97268.66;30002;983;1859;-59
2021/11/17 04:52:06;;;;;;;;;;;;;;;3.91;90.43;97277.50;30001;983;1868;-59
2021/11/17 04:52:57;;;;;;;;;;;;;;;3.89;90.47;97276.94;30002;982;1864;-60
2021/11/17 04:53:41;;;;;;;;;;;;;;;3.86;90.49;97280.09;30001;982;1877;-59
2021/11/17 04:54:31;;;;;;;;;;;;;;;3.86;90.53;97284.66;30001;982;1855;-60
2021/11/17 04:55:23;;;;;;;;;;;;;;;3.85;90.67;97278.47;30001;983;1850;-59
2021/11/17 04:56:03;;;;;;;;;;;;;;;3.85;91.00;97281.16;30001;983;1863;-59
2021/11/17 04:57:05;;;;;;;;;;;;;;;3.85;90.85;97281.16;30001;983;1868;-59
2021/11/17 04:57:55;;;;;;;;;;;;;;;3.86;90.91;97271.22;30001;983;1877;-60
2021/11/17 04:58:44;;;;;;;;;;;;;;;3.86;90.77;97281.97;30001;983;1873;-59
2021/11/17 04:59:25;;;;;;;;;;;;;;;3.85;91.07;97283.03;30001;982;1873;-59
2021/11/17 05:00:25;;;;;;;;;;;;;;;3.83;91.20;97277.91;30001;982;1855;-59
2021/11/17 05:01:17;;;;;;;;;;;;;;;3.80;91.07;97278.41;30001;982;1873;-59
2021/11/17 05:02:12;;;;;;;;;;;;;;;3.78;91.19;97282.38;30001;982;1864;-59
2021/11/17 05:02:58;;;;;;;;;;;;;;;3.85;91.15;97269.59;30001;983;1876;-59
2021/11/17 05:03:45;;;;;;;;;;;;;;;3.86;91.29;97277.41;30001;983;1868;-60
2021/11/17 05:04:30;;;;;;;;;;;;;;;3.89;91.12;97278.81;30001;983;1868;-60
2021/11/17 05:05:36;;;;;;;;;;;;;;;3.87;90.87;97281.72;30001;983;1855;-59
2021/11/17 05:06:16;;;;;;;;;;;;;;;3.83;91.03;97279.75;30001;983;1873;-60
2021/11/17 05:07:07;;;;;;;;;;;;;;;3.81;91.23;97279.22;30001;982;1864;-59
2021/11/17 05:07:43;;;;;;;;;;;;;;;3.80;90.95;97283.78;30001;982;1864;-60
2021/11/17 05:08:34;;;;;;;;;;;;;;;3.79;91.18;97279.47;30001;982;1851;-58
2021/11/17 05:09:32;;;;;;;;;;;;;;;3.77;91.03;97273.50;30001;982;1882;-59
2021/11/17 05:10:11;;;;;;;;;;;;;;;3.76;91.23;97277.25;30001;982;1873;-59
2021/11/17 05:11:04;;;;;;;;;;;;;;;3.75;91.35;97281.00;30001;983;1872;-58
2021/11/17 05:11:53;;;;;;;;;;;;;;;3.74;91.61;97284.72;30001;983;1863;-59
2021/11/17 05:12:37;;;;;;;;;;;;;;;3.74;91.45;97287.41;30001;983;1868;-58
2021/11/17 05:13:37;;;;;;;;;;;;;;;3.74;91.37;97283.91;30001;983;1868;-58
2021/11/17 05:14:36;;;;;;;;;;;;;;;3.72;91.48;97284.16;30001;983;1881;-60
2021/11/17 05:15:30;;;;;;;;;;;;;;;3.71;91.76;97285.19;30001;982;1859;-58
2021/11/17 05:16:27;;;;;;;;;;;;;;;3.69;91.46;97284.62;30001;982;1877;-56
2021/11/17 05:17:04;;;;;;;;;;;;;;;3.68;91.73;97288.37;30001;982;1877;-59
2021/11/17 05:17:52;;;;;;;;;;;;;;;3.68;91.59;97291.03;30001;982;1868;-59
2021/11/17 05:18:48;;;;;;;;;;;;;;;3.68;91.68;97286.50;30001;983;1859;-58
2021/11/17 05:19:31;;;;;;;;;;;;;;;3.70;91.60;97286.25;30001;983;1872;-59
2021/11/17 05:20:27;;;;;;;;;;;;;;;3.71;91.85;97293.25;30001;983;1868;-59
2021/11/17 05:21:11;;;;;;;;;;;;;;;3.70;91.85;97295.13;30001;983;1864;-59
2021/11/17 05:21:51;;;;;;;;;;;;;;;3.70;91.83;97291.62;30001;983;1864;-58
2021/11/17 05:22:31;;;;;;;;;;;;;;;3.69;91.78;97292.69;30001;982;1859;-59
2021/11/17 05:23:36;;;;;;;;;;;;;;;3.70;91.91;97297.00;30001;982;1864;-59
2021/11/17 05:24:19;;;;;;;;;;;;;;;3.70;91.81;97294.31;30001;982;1864;-57
2021/11/17 05:25:11;;;;;;;;;;;;;;;3.70;91.97;97288.94;30001;982;1864;-59
2021/11/17 05:26:11;;;;;;;;;;;;;;;3.71;92.05;97295.94;30001;983;1872;-59
2021/11/17 05:27:01;;;;;;;;;;;;;;;3.69;92.03;97293.50;30001;983;1881;-56
2021/11/17 05:27:54;;;;;;;;;;;;;;;3.70;92.11;97288.94;30001;983;1872;-59
2021/11/17 05:28:32;;;;;;;;;;;;;;;3.68;92.10;97297.22;30001;983;1872;-58
2021/11/17 05:29:15;;;;;;;;;;;;;;;3.67;92.13;97290.22;30001;983;1859;-59
2021/11/17 05:30:09;;;;;;;;;;;;;;;3.69;92.09;97295.34;30001;982;1851;-58
2021/11/17 05:30:55;;;;;;;;;;;;;;;3.69;92.00;97303.41;30001;962;1901;-58
2021/11/17 05:31:44;;;;;;;;;;;;;;;3.68;92.13;97291.88;30001;982;1873;-58
2021/11/17 05:32:31;;;;;;;;;;;;;;;3.69;91.96;97301.53;30001;983;1872;-59
2021/11/17 05:33:14;;;;;;;;;;;;;;;3.69;92.18;97298.03;30001;983;1872;-59
2021/11/17 05:34:05;;;;;;;;;;;;;;;3.69;92.03;97303.41;30001;983;1872;-58
2021/11/17 05:34:41;;;;;;;;;;;;;;;3.67;92.06;97300.97;30001;983;1863;-60
2021/11/17 05:35:38;;;;;;;;;;;;;;;3.67;92.49;97302.84;30001;983;1863;-59
2021/11/17 05:36:32;;;;;;;;;;;;;;;3.68;92.16;97301.78;30001;983;1881;-60
2021/11/17 05:37:23;;;;;;;;;;;;;;;3.67;92.21;97300.97;30001;982;1877;-57
2021/11/17 05:38:00;;;;;;;;;;;;;;;3.66;92.15;97293.16;30001;985;1860;-59
2021/11/17 05:38:43;;;;;;;;;;;;;;;3.68;92.48;97307.16;30001;982;1850;-59
2021/11/17 05:39:26;;;;;;;;;;;;;;;3.69;92.30;97298.03;30001;982;1873;-58
2021/11/17 05:40:12;;;;;;;;;;;;;;;3.71;92.15;97298.62;30001;983;1872;-59
2021/11/17 05:40:52;;;;;;;;;;;;;;;3.72;92.09;97297.56;30001;983;1859;-58
2021/11/17 05:41:41;;;;;;;;;;;;;;;3.73;92.02;97301.88;30001;983;1863;-59
2021/11/17 05:42:24;;;;;;;;;;;;;;;3.73;92.30;97304.56;30001;983;1877;-59
2021/11/17 05:43:01;;;;;;;;;;;;;;;3.74;92.09;97298.16;30001;983;1872;-59
2021/11/17 05:43:58;;;;;;;;;;;;;;;3.76;92.33;97297.91;30001;983;1872;-56
2021/11/17 05:44:47;;;;;;;;;;;;;;;3.77;92.17;97302.22;30001;983;1881;-59
2021/11/17 05:45:41;;;;;;;;;;;;;;;3.76;91.89;97303.28;30001;982;1771;-59
2021/11/17 05:46:24;;;;;;;;;;;;;;;3.76;92.07;97309.47;30001;982;1864;-59
2021/11/17 05:47:15;;;;;;;;;;;;;;;3.75;92.09;97307.81;30001;982;1864;-59
2021/11/17 05:48:02;;;;;;;;;;;;;;;3.76;91.81;97303.28;30001;983;1881;-59
2021/11/17 05:49:07;;;;;;;;;;;;;;;3.74;91.89;97306.19;30001;983;1872;-59
2021/11/17 05:49:54;;;;;;;;;;;;;;;3.75;91.82;97307.81;30001;983;1881;-57
2021/11/17 05:50:50;;;;;;;;;;;;;;;3.74;91.81;97305.38;30001;983;1872;-58
2021/11/17 05:51:46;;;;;;;;;;;;;;;3.75;92.02;97307.81;30001;983;1859;-58
2021/11/17 05:52:40;;;;;;;;;;;;;;;3.75;92.08;97312.38;30001;982;1877;-57
2021/11/17 05:53:29;;;;;;;;;;;;;;;3.74;91.91;97306.19;30001;982;1803;-59
2021/11/17 05:54:23;;;;;;;;;;;;;;;3.74;92.22;97306.19;30001;982;1868;-59
2021/11/17 05:55:12;;;;;;;;;;;;;;;3.74;92.15;97314.25;30001;983;1880;-58
2021/11/17 05:56:01;;;;;;;;;;;;;;;3.74;92.33;97306.19;30001;986;1854;-59
2021/11/17 05:56:51;;;;;;;;;;;;;;;3.70;92.34;97311.22;30001;983;1850;-57
2021/11/17 05:57:32;;;;;;;;;;;;;;;3.68;92.36;97312.50;30001;983;1872;-59
2021/11/17 05:58:21;;;;;;;;;;;;;;;3.69;92.21;97314.16;30001;983;1872;-59
2021/11/17 05:59:17;;;;;;;;;;;;;;;3.69;92.22;97314.97;30001;982;1877;-58
2021/11/17 06:00:08;;;;;;;;;;;;;;;3.69;92.30;97308.78;30001;982;1872;-59
2021/11/17 06:00:58;;;;;;;;;;;;;;;3.69;92.51;97319.50;30001;982;1881;-60
2021/11/17 06:01:38;;;;;;;;;;;;;;;3.69;92.50;97319.50;30001;982;1877;-58
2021/11/17 06:02:24;;;;;;;;;;;;;;;3.71;92.18;97312.03;30001;983;1859;-59
2021/11/17 06:03:12;;;;;;;;;;;;;;;3.72;92.45;97318.22;30001;983;1863;-59
2021/11/17 06:04:06;;;;;;;;;;;;;;;3.72;92.55;97319.03;30001;983;1859;-59
2021/11/17 06:04:37;;;;;;;;;;;;;;;3.72;92.60;97319.03;30001;983;1872;-60
2021/11/17 06:05:08;;;;;;;;;;;;;;;3.72;92.61;97321.72;30001;983;1876;-59
2021/11/17 06:05:38;;;;;;;;;;;;;;;3.72;92.39;97324.41;30001;983;1877;-60
2021/11/17 06:06:09;;;;;;;;;;;;;;;3.72;92.59;97327.09;30001;983;1877;-57
2021/11/17 06:06:40;;;;;;;;;;;;;;;3.72;92.42;97324.41;30001;982;1859;-60
2021/11/17 06:07:10;;;;;;;;;;;;;;;3.73;92.64;97328.72;30001;982;1872;-62
2021/11/17 06:07:41;;;;;;;;;;;;;;;3.73;92.68;97330.59;30001;973;1879;-59
2021/11/17 06:08:12;;;;;;;;;;;;;;;3.75;92.73;97328.50;30001;982;1873;-61
2021/11/17 06:08:42;;;;;;;;;;;;;;;3.73;92.68;97326.03;30001;982;1877;-60
2021/11/17 06:09:13;;;;;;;;;;;;;;;3.73;92.49;97328.72;30001;982;1877;-59
2021/11/17 06:09:43;;;;;;;;;;;;;;;3.73;92.71;97331.41;30001;983;1876;-59
2021/11/17 06:10:16;;;;;;;;;;;;;;;3.74;92.84;97333.03;30001;983;1876;-59
2021/11/17 06:10:49;;;;;;;;;;;;;;;3.76;92.47;97328.25;30001;983;1885;-59
2021/11/17 06:11:43;;;;;;;;;;;;;;;3.76;92.83;97333.63;30001;983;1881;-56
2021/11/17 06:12:15;;;;;;;;;;;;;;;3.82;92.70;97332.63;30001;983;1863;-61
2021/11/17 06:12:46;;;;;;;;;;;;;;;3.83;92.37;97336.13;30001;983;1876;-59
2021/11/17 06:13:17;;;;;;;;;;;;;;;3.84;92.31;97332.41;30001;983;1886;-59
2021/11/17 06:13:48;;;;;;;;;;;;;;;3.84;92.42;97327.03;30001;983;1881;-59
2021/11/17 06:14:21;;;;;;;;;;;;;;;3.83;92.16;97328.91;30001;982;1885;-54
2021/11/17 06:14:52;;;;;;;;;;;;;;;3.84;92.29;97333.22;30001;982;1864;-61
2021/11/17 06:15:24;;;;;;;;;;;;;;;3.84;92.19;97333.22;30001;982;1881;-59
2021/11/17 06:15:55;;;;;;;;;;;;;;;3.84;92.37;97333.22;30001;982;1881;-60
2021/11/17 06:16:27;;;;;;;;;;;;;;;3.82;92.17;97335.31;30001;982;1886;-57
2021/11/17 06:17:00;;;;;;;;;;;;;;;3.81;92.37;97336.38;30001;982;1881;-55
2021/11/17 06:17:31;;;;;;;;;;;;;;;3.78;92.29;97328.81;30001;986;1877;-61
2021/11/17 06:18:03;;;;;;;;;;;;;;;3.75;92.28;97326.63;30001;983;1885;-56
2021/11/17 06:18:35;;;;;;;;;;;;;;;3.74;92.45;97334.91;30001;983;1881;-60
2021/11/17 06:19:07;;;;;;;;;;;;;;;3.73;92.32;97330.59;30001;983;1868;-56
2021/11/17 06:19:40;;;;;;;;;;;;;;;3.71;92.68;97328.16;30001;983;1876;-61
2021/11/17 06:20:13;;;;;;;;;;;;;;;3.69;92.96;97332.94;30001;983;1886;-59
2021/11/17 06:20:44;;;;;;;;;;;;;;;3.68;92.74;97328.63;30001;983;1881;-59
2021/11/17 06:21:16;;;;;;;;;;;;;;;3.68;93.05;97329.44;30001;983;1868;-59
2021/11/17 06:21:47;;;;;;;;;;;;;;;3.69;92.78;97330.25;30001;982;1877;-60
2021/11/17 06:22:20;;;;;;;;;;;;;;;3.68;92.88;97334.81;30001;982;1868;-60
2021/11/17 06:22:53;;;;;;;;;;;;;;;3.68;92.98;97331.31;30001;982;1877;-60
2021/11/17 06:23:27;;;;;;;;;;;;;;;3.68;93.23;97333.97;30001;982;1886;-61
2021/11/17 06:23:59;;;;;;;;;;;;;;;3.68;92.98;97339.34;30001;982;1882;-61
2021/11/17 06:24:30;;;;;;;;;;;;;;;3.68;93.03;97333.97;30001;982;1868;-60
2021/11/17 06:25:05;;;;;;;;;;;;;;;3.66;93.15;97336.09;30001;983;1876;-60
2021/11/17 06:25:40;;;;;;;;;;;;;;;3.67;93.19;97337.72;30001;983;1885;-60
2021/11/17 06:26:12;;;;;;;;;;;;;;;3.68;93.19;97339.34;30001;983;1881;-59
2021/11/17 06:26:44;;;;;;;;;;;;;;;3.67;93.35;97340.41;30001;983;1867;-61
2021/11/17 06:27:17;;;;;;;;;;;;;;;3.66;93.27;97341.47;30001;983;1877;-60
2021/11/17 06:27:50;;;;;;;;;;;;;;;3.66;93.38;97338.78;30001;983;1868;-60
2021/11/17 06:28:25;;;;;;;;;;;;;;;3.65;93.26;97345.19;30001;983;1877;-60
2021/11/17 06:29:00;;;;;;;;;;;;;;;3.65;93.53;97345.19;30001;983;1885;-61
2021/11/17 06:29:34;;;;;;;;;;;;;;;3.64;93.24;97348.94;30001;982;1881;-61
2021/11/17 06:30:06;;;;;;;;;;;;;;;3.63;93.57;97342.75;30001;982;1868;-60
2021/11/17 06:30:39;;;;;;;;;;;;;;;3.65;93.54;97350.56;30001;982;1877;-61
2021/11/17 06:31:10;;;;;;;;;;;;;;;3.65;93.45;97345.19;30001;982;1886;-61
2021/11/17 06:31:42;;;;;;;;;;;;;;;3.65;93.39;97350.56;30001;983;1881;-61
2021/11/17 06:32:14;;;;;;;;;;;;;;;3.64;93.57;97348.94;30001;983;1885;-61
2021/11/17 06:32:45;;;;;;;;;;;;;;;3.63;93.47;97352.66;30001;983;1881;-62
2021/11/17 06:33:16;;;;;;;;;;;;;;;3.62;93.55;97351.03;30001;983;1885;-61
2021/11/17 06:33:47;;;;;;;;;;;;;;;3.63;93.41;97347.28;30001;983;1881;-60
2021/11/17 06:34:21;;;;;;;;;;;;;;;3.64;93.38;97348.94;30001;983;1885;-60
2021/11/17 06:34:54;;;;;;;;;;;;;;;3.64;93.48;97347.06;30001;983;1881;-60
2021/11/17 06:35:25;;;;;;;;;;;;;;;3.67;93.65;97348.47;30001;983;1868;-61
2021/11/17 06:35:55;;;;;;;;;;;;;;;3.68;93.51;97355.44;30001;983;1877;-61
2021/11/17 06:36:26;;;;;;;;;;;;;;;3.65;93.07;97355.94;30001;983;1885;-61
2021/11/17 06:36:58;;;;;;;;;;;;;;;3.66;93.05;97352.19;30001;982;1864;-60